Estación Meteorológica Peña el Pijo (Robertgarden) [ 11/20/18 01:38:06 CET ]

Fecha Hora Presion(HPa) Temp (°C) Humedad % Rocio (°C) Viento ( m/s) Direccion Lluvia 1Hora(mm) Lluvia 24H(mm) LLuvia Total(mm)
2018-Nov-02 01:01:34 1010.000 2.2 85 -0.1         94.79
2018-Nov-02 02:03:13 1010.000 4.6 85 2.3         94.79
2018-Nov-02 03:03:16 1009.300 6.3 83 3.6         94.79
2018-Nov-02 04:03:17 1009.400 6.1 80 2.9         94.79
2018-Nov-02 05:03:08 1009.300 6.5 78 2.9         94.79
2018-Nov-02 06:11:06 1009.600 4.9 77 1.2         94.79
2018-Nov-02 07:01:58 1009.900 4.6 80 1.4         94.79
2018-Nov-02 08:01:45 1009.600 6.2 80 3.0         94.79
2018-Nov-02 09:01:49 1010.000 8.9 76 4.8 0.5 NNW     94.79
2018-Nov-02 10:01:39 1010.600 10.6 71 5.6         94.79
2018-Nov-02 11:01:52 1010.400 12.8 66 6.6 2.7 NW     94.79
2018-Nov-02 12:02:09 1010.400 14.1 64 7.4         94.79
2018-Nov-02 13:01:41 1009.900 13.6 65 7.1 3.5 NNW     94.79
2018-Nov-02 14:01:52 1010.100 15.0 59 7.0         94.79
2018-Nov-02 15:01:43 1009.800 14.8 63 7.8         94.79
2018-Nov-02 16:01:49 1010.100 15.9 58 7.7 0.5 N     94.79
2018-Nov-02 17:01:55 1010.300 13.9 61 6.5         94.79
2018-Nov-02 18:01:44 1011.000 11.4 68 5.7         94.79
2018-Nov-02 19:01:52 1011.300 10.2 72 5.4         94.79
2018-Nov-02 20:01:55 1012.000 9.8 75 5.5         94.79
2018-Nov-02 21:01:47 1012.300 9.1 77 5.2         94.79
2018-Nov-02 22:01:53 1012.500 8.7 78 5.0         94.79
2018-Nov-02 23:01:48 1012.500 8.5 81 5.4         94.79

Temperatura Máxima:15°    Temperatura Mínima:
Presión Máxima:1012.500 Hpa    Presión Mínima:1009.300 Hpa


Volver